Time;durP1;ratioP1;P1;durP2;ratioP2;P2;SDS_P1;SDS_P2;PMS_P1;PMS_P2;Temp;Humidity;BMP_temperature;BMP_pressure;BME280_temperature;BME280_humidity;BME280_pressure;Samples;Min_cycle;Max_cycle;Signal;HPM_P1;HPM_P2
2023/11/14 00:00:27;;;;;;;;;;;10.40;76.50;;;;;;5092655;28;19916;-69
2023/11/14 00:02:53;;;;;;;;;;;10.40;76.50;;;;;;5094485;28;19916;-69
2023/11/14 00:05:19;;;;;;;;;;;10.40;76.50;;;;;;5094519;28;19918;-70
2023/11/14 00:07:44;;;;;;;;;;;10.40;76.50;;;;;;5094922;28;19920;-68
2023/11/14 00:10:11;;;;;;;;;;;10.30;76.80;;;;;;5092455;28;19916;-68
2023/11/14 00:12:37;;;;;;;;;;;10.20;76.80;;;;;;5093291;28;19927;-69
2023/11/14 00:15:04;;;;;;;;;;;10.20;77.30;;;;;;5094708;28;19916;-69
2023/11/14 00:17:30;;;;;;;;;;;10.20;77.50;;;;;;5094459;28;20357;-70
2023/11/14 00:19:56;;;;;;;;;;;10.00;77.00;;;;;;5093124;28;20381;-69
2023/11/14 00:22:22;;;;;;;;;;;10.10;77.80;;;;;;5092319;28;19920;-70
2023/11/14 00:24:48;;;;;;;;;;;10.00;77.70;;;;;;5092927;28;19934;-68
2023/11/14 00:27:14;;;;;;;;;;;9.90;77.90;;;;;;5093489;28;20015;-69
2023/11/14 00:29:41;;;;;;;;;;;9.80;77.30;;;;;;5092708;28;20078;-70
2023/11/14 00:32:08;;;;;;;;;;;9.80;77.90;;;;;;5092174;28;20016;-70
2023/11/14 00:34:35;;;;;;;;;;;9.80;78.10;;;;;;5092789;28;19912;-69
2023/11/14 00:37:01;;;;;;;;;;;9.70;78.10;;;;;;5094210;28;19920;-70
2023/11/14 00:39:27;;;;;;;;;;;9.70;77.50;;;;;;5092634;28;19916;-68
2023/11/14 00:41:53;;;;;;;;;;;9.70;78.00;;;;;;5093361;28;19919;-69
2023/11/14 00:44:38;;;;;;;;;;;9.70;77.50;;;;;;5093781;28;20323;-69
2023/11/14 00:47:04;;;;;;;;;;;9.60;77.90;;;;;;5092471;28;19952;-70
2023/11/14 00:49:30;;;;;;;;;;;9.60;78.10;;;;;;5093716;28;19915;-69
2023/11/14 00:51:57;;;;;;;;;;;9.60;78.10;;;;;;5093084;28;19920;-68
2023/11/14 00:54:24;;;;;;;;;;;9.50;78.10;;;;;;5092306;28;19916;-70
2023/11/14 00:56:50;;;;;;;;;;;9.40;78.10;;;;;;5092517;28;20020;-68
2023/11/14 00:59:16;;;;;;;;;;;9.40;78.40;;;;;;5093702;28;20420;-69
2023/11/14 01:01:42;;;;;;;;;;;9.40;78.40;;;;;;5093131;28;19920;-69
2023/11/14 01:04:10;;;;;;;;;;;9.30;77.80;;;;;;5092230;28;19923;-69
2023/11/14 01:06:36;;;;;;;;;;;9.30;79.40;;;;;;5093317;28;20296;-68
2023/11/14 01:09:02;;;;;;;;;;;9.30;78.50;;;;;;5093331;28;20302;-68
2023/11/14 01:11:28;;;;;;;;;;;9.30;78.50;;;;;;5091419;28;19919;-69
2023/11/14 01:13:54;;;;;;;;;;;9.30;78.40;;;;;;5092152;28;19912;-69
2023/11/14 01:16:20;;;;;;;;;;;9.30;78.40;;;;;;5093364;28;19999;-68
2023/11/14 01:18:46;;;;;;;;;;;9.30;78.30;;;;;;5091846;28;19922;-69
2023/11/14 01:21:31;;;;;;;;;;;9.30;78.50;;;;;;5091431;28;19924;-69
2023/11/14 01:23:57;;;;;;;;;;;9.20;78.40;;;;;;5092095;28;19923;-69
2023/11/14 01:26:24;;;;;;;;;;;9.10;78.00;;;;;;5093254;28;19920;-68
2023/11/14 01:28:49;;;;;;;;;;;9.10;78.80;;;;;;5075048;28;20444;-68
2023/11/14 01:31:34;;;;;;;;;;;9.10;78.60;;;;;;5092510;28;19920;-69
2023/11/14 01:34:01;;;;;;;;;;;9.00;78.30;;;;;;5074990;28;20299;-69
2023/11/14 01:36:27;;;;;;;;;;;9.10;78.50;;;;;;5091810;28;19928;-70
2023/11/14 01:38:53;;;;;;;;;;;9.10;78.40;;;;;;5091420;28;20333;-69
2023/11/14 01:41:19;;;;;;;;;;;9.00;78.30;;;;;;5091242;28;19926;-69
2023/11/14 01:43:46;;;;;;;;;;;9.00;78.30;;;;;;5074870;28;19920;-69
2023/11/14 01:46:15;;;;;;;;;;;9.00;78.30;;;;;;5091792;28;19920;-70
2023/11/14 01:49:00;;;;;;;;;;;9.00;78.20;;;;;;5092775;28;19912;-70
2023/11/14 01:51:26;;;;;;;;;;;9.00;78.00;;;;;;5090927;28;19920;-68
2023/11/14 01:53:52;;;;;;;;;;;9.00;77.50;;;;;;5092691;28;19916;-69
2023/11/14 01:56:18;;;;;;;;;;;9.00;78.00;;;;;;5074709;28;19919;-69
2023/11/14 01:58:44;;;;;;;;;;;9.00;77.70;;;;;;5091614;28;19938;-68
2023/11/14 02:01:13;;;;;;;;;;;8.90;77.80;;;;;;5073927;28;19961;-68
2023/11/14 02:03:39;;;;;;;;;;;8.90;77.90;;;;;;5091538;28;19912;-69
2023/11/14 02:06:08;;;;;;;;;;;8.90;77.50;;;;;;5091730;28;19920;-70
2023/11/14 02:08:33;;;;;;;;;;;8.90;78.00;;;;;;5074547;28;19973;-70
2023/11/14 02:11:00;;;;;;;;;;;8.80;78.00;;;;;;5073925;28;20326;-68
2023/11/14 02:13:26;;;;;;;;;;;8.80;78.30;;;;;;5091411;28;19911;-69
2023/11/14 02:15:52;;;;;;;;;;;8.90;78.30;;;;;;5091479;28;19920;-70
2023/11/14 02:18:19;;;;;;;;;;;8.90;78.30;;;;;;5074484;28;19919;-68
2023/11/14 02:20:45;;;;;;;;;;;8.80;78.00;;;;;;5092128;28;19962;-69
2023/11/14 02:23:14;;;;;;;;;;;8.90;78.20;;;;;;5091435;28;19912;-70
2023/11/14 02:25:40;;;;;;;;;;;8.80;78.00;;;;;;5091402;28;19920;-70
2023/11/14 02:28:06;;;;;;;;;;;8.80;78.20;;;;;;5091297;28;19959;-69
2023/11/14 02:30:32;;;;;;;;;;;8.90;78.30;;;;;;5090737;28;20014;-69
2023/11/14 02:32:58;;;;;;;;;;;8.90;78.00;;;;;;5091432;28;19962;-68
2023/11/14 02:35:24;;;;;;;;;;;8.90;78.00;;;;;;5091444;28;19916;-70
2023/11/14 02:37:50;;;;;;;;;;;8.90;78.00;;;;;;5092561;28;19920;-68
2023/11/14 02:40:16;;;;;;;;;;;9.00;78.10;;;;;;5090491;28;20273;-70
2023/11/14 02:42:42;;;;;;;;;;;9.00;78.00;;;;;;5091288;28;19961;-69
2023/11/14 02:45:09;;;;;;;;;;;9.00;77.90;;;;;;5091156;28;19983;-69
2023/11/14 02:47:35;;;;;;;;;;;8.90;78.00;;;;;;5074245;28;20365;-68
2023/11/14 02:50:19;;;;;;;;;;;8.90;78.60;;;;;;5093358;28;19961;-68
2023/11/14 02:52:45;;;;;;;;;;;8.90;78.60;;;;;;5095755;28;20030;-68
2023/11/14 02:55:11;;;;;;;;;;;8.80;78.60;;;;;;5094708;28;20006;-70
2023/11/14 02:57:37;;;;;;;;;;;8.80;78.70;;;;;;5096303;28;20304;-68
2023/11/14 03:00:04;;;;;;;;;;;8.80;78.60;;;;;;5094661;28;19921;-69
2023/11/14 03:02:30;;;;;;;;;;;8.70;77.90;;;;;;5095174;28;20289;-70
2023/11/14 03:04:56;;;;;;;;;;;8.70;78.70;;;;;;5095749;28;19920;-69
2023/11/14 03:10:27;;;;;;;;;;;8.60;78.50;;;;;;5092278;28;19927;-70
2023/11/14 03:12:54;;;;;;;;;;;8.50;78.80;;;;;;5076578;28;20019;-69
2023/11/14 03:15:19;;;;;;;;;;;8.50;78.80;;;;;;5093089;28;19912;-70
2023/11/14 03:17:45;;;;;;;;;;;8.60;78.90;;;;;;5075863;28;19918;-69
2023/11/14 03:20:12;;;;;;;;;;;8.50;78.90;;;;;;5092480;28;20589;-69
2023/11/14 03:22:38;;;;;;;;;;;8.50;78.60;;;;;;5092657;28;19986;-69
2023/11/14 03:25:04;;;;;;;;;;;8.40;78.70;;;;;;5076113;28;20416;-69
2023/11/14 03:27:29;;;;;;;;;;;8.40;78.20;;;;;;5092715;28;19981;-70
2023/11/14 03:29:55;;;;;;;;;;;8.40;78.90;;;;;;5092836;28;19924;-69
2023/11/14 03:32:22;;;;;;;;;;;8.50;78.90;;;;;;5058287;28;19923;-69
2023/11/14 03:34:48;;;;;;;;;;;8.50;78.80;;;;;;5076256;28;20369;-69
2023/11/14 03:37:14;;;;;;;;;;;8.50;78.90;;;;;;5075672;28;19919;-70
2023/11/14 03:39:41;;;;;;;;;;;8.50;78.90;;;;;;5092574;28;19919;-69
2023/11/14 03:42:07;;;;;;;;;;;8.40;78.40;;;;;;5094440;28;19920;-69
2023/11/14 03:44:33;;;;;;;;;;;8.40;79.50;;;;;;5093755;28;19915;-68
2023/11/14 03:46:59;;;;;;;;;;;8.40;79.40;;;;;;5093766;28;20513;-70
2023/11/14 03:49:25;;;;;;;;;;;8.40;79.50;;;;;;5094775;28;20051;-68
2023/11/14 03:51:51;;;;;;;;;;;8.40;79.50;;;;;;5092766;28;19916;-68
2023/11/14 03:54:16;;;;;;;;;;;8.40;79.50;;;;;;5094584;28;19920;-70
2023/11/14 03:56:42;;;;;;;;;;;8.40;79.60;;;;;;5094844;28;19926;-69
2023/11/14 03:59:08;;;;;;;;;;;8.40;79.40;;;;;;5076634;28;19934;-70
2023/11/14 04:01:36;;;;;;;;;;;8.40;79.50;;;;;;5091556;28;19926;-70
2023/11/14 04:04:02;;;;;;;;;;;8.40;79.40;;;;;;5093331;28;19923;-69
2023/11/14 04:06:28;;;;;;;;;;;8.40;79.60;;;;;;5094478;28;19920;-70
2023/11/14 04:08:54;;;;;;;;;;;8.40;79.90;;;;;;5094361;28;20014;-70
2023/11/14 04:11:20;;;;;;;;;;;8.30;79.80;;;;;;5094027;28;19998;-70
2023/11/14 04:13:46;;;;;;;;;;;8.30;79.90;;;;;;5093143;28;19916;-69
2023/11/14 04:16:12;;;;;;;;;;;8.30;79.90;;;;;;5094349;28;20273;-70
2023/11/14 04:18:38;;;;;;;;;;;8.30;79.80;;;;;;5094227;28;19930;-69
2023/11/14 04:21:05;;;;;;;;;;;8.30;79.80;;;;;;5092456;28;19923;-68
2023/11/14 04:23:31;;;;;;;;;;;8.30;79.60;;;;;;5093139;28;19946;-69
2023/11/14 04:25:56;;;;;;;;;;;8.30;79.60;;;;;;5092923;28;19924;-70
2023/11/14 04:28:23;;;;;;;;;;;8.30;79.60;;;;;;5092881;28;20266;-68
2023/11/14 04:30:49;;;;;;;;;;;8.30;79.50;;;;;;5093620;28;19916;-70
2023/11/14 04:33:15;;;;;;;;;;;8.30;79.50;;;;;;5092772;28;19958;-68
2023/11/14 04:35:41;;;;;;;;;;;8.20;79.50;;;;;;5093996;28;20010;-68
2023/11/14 04:38:07;;;;;;;;;;;8.20;79.50;;;;;;5093772;28;19920;-69
2023/11/14 04:40:33;;;;;;;;;;;8.20;79.50;;;;;;5092964;28;19916;-70
2023/11/14 04:42:59;;;;;;;;;;;8.20;80.30;;;;;;5092673;28;20082;-70
2023/11/14 04:45:26;;;;;;;;;;;8.30;79.60;;;;;;5093679;28;19915;-69
2023/11/14 04:47:52;;;;;;;;;;;8.20;79.40;;;;;;5093642;28;19987;-70
2023/11/14 04:50:21;;;;;;;;;;;8.20;78.90;;;;;;5074810;28;20342;-69
2023/11/14 04:52:47;;;;;;;;;;;8.20;79.30;;;;;;5093861;28;19916;-69
2023/11/14 04:55:13;;;;;;;;;;;8.20;79.50;;;;;;5092547;28;20007;-70
2023/11/14 04:57:38;;;;;;;;;;;8.20;79.50;;;;;;5092580;28;19916;-70
2023/11/14 05:00:05;;;;;;;;;;;8.20;79.60;;;;;;5093088;28;20394;-69
2023/11/14 05:02:33;;;;;;;;;;;8.20;79.50;;;;;;5093756;28;19911;-68
2023/11/14 05:04:59;;;;;;;;;;;8.20;79.50;;;;;;5093613;28;20006;-69
2023/11/14 05:07:25;;;;;;;;;;;8.20;79.50;;;;;;5075157;28;20511;-70
2023/11/14 05:09:52;;;;;;;;;;;8.20;79.50;;;;;;5093425;28;20335;-69
2023/11/14 05:12:18;;;;;;;;;;;8.20;79.50;;;;;;5092897;28;20399;-70
2023/11/14 05:15:02;;;;;;;;;;;8.10;79.30;;;;;;5093279;28;20010;-69
2023/11/14 05:17:28;;;;;;;;;;;8.20;79.30;;;;;;5075087;28;20337;-68
2023/11/14 05:19:57;;;;;;;;;;;8.20;79.40;;;;;;5093319;28;19911;-70
2023/11/14 05:22:23;;;;;;;;;;;8.20;79.30;;;;;;5092801;28;19920;-68
2023/11/14 05:24:48;;;;;;;;;;;8.20;79.30;;;;;;5093214;28;19955;-70
2023/11/14 05:27:14;;;;;;;;;;;8.20;79.20;;;;;;5091720;28;19950;-70
2023/11/14 05:29:40;;;;;;;;;;;8.20;79.30;;;;;;5093091;28;19918;-70
2023/11/14 05:32:07;;;;;;;;;;;8.20;79.30;;;;;;5091176;28;19924;-70
2023/11/14 05:34:33;;;;;;;;;;;8.20;78.60;;;;;;5091721;28;20330;-69
2023/11/14 05:36:59;;;;;;;;;;;8.20;78.70;;;;;;5093374;28;19931;-70
2023/11/14 05:39:25;;;;;;;;;;;8.20;79.40;;;;;;5092764;28;19998;-68
2023/11/14 05:41:51;;;;;;;;;;;8.10;79.40;;;;;;5091061;28;20007;-70
2023/11/14 05:44:17;;;;;;;;;;;8.20;79.40;;;;;;5091361;28;20381;-70
2023/11/14 05:46:44;;;;;;;;;;;8.20;79.30;;;;;;5093133;28;20015;-69
2023/11/14 05:49:11;;;;;;;;;;;8.30;79.20;;;;;;5091481;28;19966;-68
2023/11/14 05:51:38;;;;;;;;;;;8.30;78.90;;;;;;5073796;28;20296;-70
2023/11/14 05:54:05;;;;;;;;;;;8.30;78.20;;;;;;5091678;28;19938;-70
2023/11/14 05:56:31;;;;;;;;;;;8.40;78.50;;;;;;5091659;28;19927;-69
2023/11/14 05:58:57;;;;;;;;;;;8.50;78.80;;;;;;5091642;28;19912;-69
2023/11/14 06:01:23;;;;;;;;;;;8.50;78.90;;;;;;5092357;28;19973;-69
2023/11/14 06:03:49;;;;;;;;;;;8.50;78.80;;;;;;5092700;28;19912;-68
2023/11/14 06:06:16;;;;;;;;;;;8.50;79.60;;;;;;5091534;28;19920;-69
2023/11/14 06:08:42;;;;;;;;;;;8.50;79.30;;;;;;5091434;28;19916;-70
2023/11/14 06:11:11;;;;;;;;;;;8.60;79.60;;;;;;5074094;28;19920;-69
2023/11/14 06:13:37;;;;;;;;;;;8.60;79.40;;;;;;5091469;28;19946;-69
2023/11/14 06:16:03;;;;;;;;;;;8.70;80.30;;;;;;5091469;28;20027;-69
2023/11/14 06:18:30;;;;;;;;;;;8.80;79.60;;;;;;5091418;28;19915;-69
2023/11/14 06:20:59;;;;;;;;;;;8.90;80.60;;;;;;5092067;28;20288;-68
2023/11/14 06:23:25;;;;;;;;;;;9.10;81.00;;;;;;5091368;28;20327;-69
2023/11/14 06:25:52;;;;;;;;;;;9.20;81.30;;;;;;5093558;28;19927;-70
2023/11/14 06:28:19;;;;;;;;;;;9.30;81.60;;;;;;5095123;28;20359;-70
2023/11/14 06:30:45;;;;;;;;;;;9.40;82.40;;;;;;5095849;28;19926;-69
2023/11/14 06:33:11;;;;;;;;;;;9.60;83.20;;;;;;5096632;28;19912;-70
2023/11/14 06:35:37;;;;;;;;;;;9.90;84.80;;;;;;5096227;28;19920;-70
2023/11/14 06:38:04;;;;;;;;;;;10.20;85.60;;;;;;5096254;28;19918;-68
2023/11/14 06:40:30;;;;;;;;;;;10.40;85.10;;;;;;5094243;28;19926;-70
2023/11/14 06:42:56;;;;;;;;;;;10.60;85.40;;;;;;5095162;28;19916;-69
2023/11/14 06:45:22;;;;;;;;;;;10.90;86.00;;;;;;5095054;28;19946;-70
2023/11/14 06:47:48;;;;;;;;;;;11.10;85.60;;;;;;5096431;28;19949;-69
2023/11/14 06:50:14;;;;;;;;;;;11.30;85.50;;;;;;5095328;28;20011;-69
2023/11/14 06:52:39;;;;;;;;;;;11.40;85.50;;;;;;5077758;28;19915;-70
2023/11/14 06:55:06;;;;;;;;;;;11.50;85.70;;;;;;5095169;28;19926;-69
2023/11/14 06:57:32;;;;;;;;;;;11.60;85.30;;;;;;5094705;28;20268;-68
2023/11/14 07:00:18;;;;;;;;;;;11.80;86.00;;;;;;5094664;28;20019;-69
2023/11/14 07:02:44;;;;;;;;;;;12.10;85.60;;;;;;5095925;28;19931;-70
2023/11/14 07:05:10;;;;;;;;;;;12.40;85.90;;;;;;5077431;28;19912;-70
2023/11/14 07:10:23;;;;;;;;;;;12.80;84.70;;;;;;5095091;28;19924;-70
2023/11/14 07:12:49;;;;;;;;;;;13.10;83.90;;;;;;5094742;28;19920;-69
2023/11/14 07:15:20;;;;;;;;;;;13.20;83.30;;;;;;5094345;28;20692;-68
2023/11/14 07:17:47;;;;;;;;;;;13.50;81.90;;;;;;5095913;28;20015;-69
2023/11/14 07:20:13;;;;;;;;;;;13.70;81.70;;;;;;5094872;28;19919;-70
2023/11/14 07:22:42;;;;;;;;;;;13.80;80.90;;;;;;5094187;28;20365;-69
2023/11/14 07:25:09;;;;;;;;;;;14.00;80.90;;;;;;5094268;28;20289;-68
2023/11/14 07:27:38;;;;;;;;;;;14.20;80.80;;;;;;5095609;28;20412;-70
2023/11/14 07:30:05;;;;;;;;;;;14.40;80.20;;;;;;5093571;28;20298;-69
2023/11/14 07:32:31;;;;;;;;;;;14.50;80.00;;;;;;5095412;28;20293;-69
2023/11/14 07:34:58;;;;;;;;;;;14.60;79.80;;;;;;5094268;28;19985;-70
2023/11/14 07:37:23;;;;;;;;;;;14.80;79.40;;;;;;5093552;28;20449;-69
2023/11/14 07:39:49;;;;;;;;;;;14.90;78.70;;;;;;5093922;28;19948;-70
2023/11/14 07:42:15;;;;;;;;;;;15.00;78.20;;;;;;5094630;28;19920;-70
2023/11/14 07:44:42;;;;;;;;;;;15.10;78.00;;;;;;5094977;28;19912;-70
2023/11/14 07:47:07;;;;;;;;;;;15.30;77.60;;;;;;5095144;28;19982;-69
2023/11/14 07:49:34;;;;;;;;;;;15.50;77.10;;;;;;5093625;28;20521;-69
2023/11/14 07:52:00;;;;;;;;;;;15.50;76.10;;;;;;5092975;28;19942;-70
2023/11/14 07:54:25;;;;;;;;;;;15.60;75.60;;;;;;5093398;28;20281;-69
2023/11/14 07:56:51;;;;;;;;;;;15.80;76.00;;;;;;5094996;28;19965;-69
2023/11/14 07:59:17;;;;;;;;;;;15.80;75.70;;;;;;5094671;28;19916;-70
2023/11/14 08:01:44;;;;;;;;;;;15.90;74.60;;;;;;5094308;28;19959;-70
2023/11/14 08:04:10;;;;;;;;;;;15.90;75.10;;;;;;5093396;28;19912;-70
2023/11/14 08:06:38;;;;;;;;;;;16.00;75.00;;;;;;5093181;28;20018;-69
2023/11/14 08:09:04;;;;;;;;;;;16.10;74.10;;;;;;5093315;28;19919;-70
2023/11/14 08:11:31;;;;;;;;;;;16.20;73.90;;;;;;5092670;28;19924;-69
2023/11/14 08:13:58;;;;;;;;;;;16.30;73.20;;;;;;5076358;28;19916;-70
2023/11/14 08:16:24;;;;;;;;;;;16.50;72.40;;;;;;5076285;28;20262;-70
2023/11/14 08:18:51;;;;;;;;;;;16.60;71.40;;;;;;5093080;28;19919;-68
2023/11/14 08:21:17;;;;;;;;;;;16.70;71.50;;;;;;5093985;28;20326;-68
2023/11/14 08:23:42;;;;;;;;;;;16.70;71.10;;;;;;5092951;28;19912;-69
2023/11/14 08:26:09;;;;;;;;;;;16.80;71.10;;;;;;5092782;28;19920;-70
2023/11/14 08:28:34;;;;;;;;;;;16.90;70.50;;;;;;5093873;28;19955;-70
2023/11/14 08:31:01;;;;;;;;;;;17.00;69.40;;;;;;5093672;28;20346;-69
2023/11/14 08:33:27;;;;;;;;;;;17.10;69.70;;;;;;5093915;28;19980;-69
2023/11/14 08:35:52;;;;;;;;;;;17.20;68.50;;;;;;5093966;28;19920;-70
2023/11/14 08:38:18;;;;;;;;;;;17.40;68.20;;;;;;5093811;28;19912;-68
2023/11/14 08:40:44;;;;;;;;;;;17.60;67.90;;;;;;5093290;28;20409;-70
2023/11/14 08:43:10;;;;;;;;;;;17.80;67.20;;;;;;5093867;28;19912;-69
2023/11/14 08:45:37;;;;;;;;;;;18.10;67.20;;;;;;5092592;28;19962;-70
2023/11/14 08:48:03;;;;;;;;;;;18.50;66.30;;;;;;5091962;28;20285;-70
2023/11/14 08:50:29;;;;;;;;;;;18.70;63.80;;;;;;5091870;28;20300;-70
2023/11/14 08:52:55;;;;;;;;;;;18.70;64.40;;;;;;5075466;28;19916;-68
2023/11/14 08:55:21;;;;;;;;;;;18.90;64.70;;;;;;5092157;28;19961;-70
2023/11/14 08:57:47;;;;;;;;;;;18.90;64.80;;;;;;5092663;28;20408;-70
2023/11/14 09:00:15;;;;;;;;;;;18.80;64.70;;;;;;5092974;28;20403;-70
2023/11/14 09:02:41;;;;;;;;;;;18.80;64.30;;;;;;5093908;28;19938;-68
2023/11/14 09:05:10;;;;;;;;;;;18.70;64.40;;;;;;5092248;28;20006;-70
2023/11/14 09:07:37;;;;;;;;;;;18.70;63.70;;;;;;5092270;28;19923;-68
2023/11/14 09:10:04;;;;;;;;;;;18.80;63.90;;;;;;5091626;28;19916;-70
2023/11/14 09:12:32;;;;;;;;;;;18.80;63.70;;;;;;5091977;28;19919;-70
2023/11/14 09:14:59;;;;;;;;;;;18.80;62.90;;;;;;5092260;28;20388;-69
2023/11/14 09:17:25;;;;;;;;;;;18.90;63.20;;;;;;5093428;28;20323;-69
2023/11/14 09:19:52;;;;;;;;;;;19.00;62.60;;;;;;5092058;28;19927;-70
2023/11/14 09:22:19;;;;;;;;;;;19.20;62.10;;;;;;5091422;28;19916;-68
2023/11/14 09:24:45;;;;;;;;;;;19.40;61.80;;;;;;5092084;28;19960;-70
2023/11/14 09:27:12;;;;;;;;;;;19.60;60.70;;;;;;5091830;28;19923;-69
2023/11/14 09:29:38;;;;;;;;;;;19.50;60.00;;;;;;5091844;28;20266;-69
2023/11/14 09:32:04;;;;;;;;;;;19.50;59.20;;;;;;5091458;28;19927;-70
2023/11/14 09:34:30;;;;;;;;;;;19.50;59.00;;;;;;5091879;28;19965;-70
2023/11/14 09:36:57;;;;;;;;;;;19.60;59.00;;;;;;5093237;28;19920;-70
2023/11/14 09:39:23;;;;;;;;;;;19.60;58.60;;;;;;5091865;28;19916;-68
2023/11/14 09:41:49;;;;;;;;;;;19.70;57.30;;;;;;5091132;28;20258;-70
2023/11/14 09:44:15;;;;;;;;;;;19.60;56.30;;;;;;5093001;28;19969;-69
2023/11/14 09:46:42;;;;;;;;;;;19.60;54.90;;;;;;5091644;28;19916;-69
2023/11/14 09:49:08;;;;;;;;;;;19.60;54.80;;;;;;5091750;28;20006;-70
2023/11/14 09:51:36;;;;;;;;;;;19.50;55.50;;;;;;5074234;28;20011;-70
2023/11/14 09:54:03;;;;;;;;;;;19.50;55.80;;;;;;5091808;28;20338;-70
2023/11/14 09:56:29;;;;;;;;;;;19.30;56.20;;;;;;5091395;28;19955;-69
2023/11/14 09:58:56;;;;;;;;;;;19.20;56.90;;;;;;5093993;28;19912;-70
2023/11/14 10:01:23;;;;;;;;;;;19.20;57.00;;;;;;5095166;28;19920;-69
2023/11/14 10:03:49;;;;;;;;;;;19.10;56.80;;;;;;5095731;28;19912;-69
2023/11/14 10:06:15;;;;;;;;;;;19.10;58.00;;;;;;5095623;28;20123;-69
2023/11/14 10:08:40;;;;;;;;;;;19.00;56.50;;;;;;5078538;28;19985;-70
2023/11/14 10:11:09;;;;;;;;;;;18.90;57.80;;;;;;5078071;28;19916;-70
2023/11/14 10:13:55;;;;;;;;;;;18.90;56.70;;;;;;5095558;28;19977;-70
2023/11/14 10:16:21;;;;;;;;;;;18.80;57.00;;;;;;5096795;28;19923;-70
2023/11/14 10:18:49;;;;;;;;;;;18.80;57.60;;;;;;5078548;28;19920;-70
2023/11/14 10:21:34;;;;;;;;;;;18.80;57.90;;;;;;5094552;28;20285;-69
2023/11/14 10:24:00;;;;;;;;;;;18.80;57.70;;;;;;5095258;28;19965;-69
2023/11/14 10:26:27;;;;;;;;;;;18.80;57.70;;;;;;5095147;28;19916;-70
2023/11/14 10:28:54;;;;;;;;;;;18.80;56.60;;;;;;5096293;28;19916;-70
2023/11/14 10:31:40;;;;;;;;;;;18.80;57.40;;;;;;5094576;28;20284;-70
2023/11/14 10:34:08;;;;;;;;;;;18.80;57.60;;;;;;5095198;28;20392;-70
2023/11/14 10:36:54;;;;;;;;;;;18.80;57.40;;;;;;5095104;28;19916;-69
2023/11/14 10:39:20;;;;;;;;;;;18.80;57.30;;;;;;5096034;28;19945;-69
2023/11/14 10:41:48;;;;;;;;;;;18.90;57.70;;;;;;5077604;28;19916;-70
2023/11/14 10:44:15;;;;;;;;;;;19.10;56.90;;;;;;5095316;28;19920;-70
2023/11/14 10:47:01;;;;;;;;;;;19.10;55.90;;;;;;5094967;28;19923;-69
2023/11/14 10:49:30;;;;;;;;;;;19.30;56.10;;;;;;5077952;28;20380;-70
2023/11/14 10:51:56;;;;;;;;;;;19.30;56.00;;;;;;5094153;28;19920;-70
2023/11/14 10:54:22;;;;;;;;;;;19.40;55.70;;;;;;5094809;28;20408;-69
2023/11/14 10:56:48;;;;;;;;;;;19.30;55.50;;;;;;5094835;28;20022;-69
2023/11/14 10:59:14;;;;;;;;;;;19.30;56.30;;;;;;5094747;28;19919;-69
2023/11/14 11:01:44;;;;;;;;;;;19.30;55.20;;;;;;5094151;28;19923;-69
2023/11/14 11:04:12;;;;;;;;;;;19.50;56.30;;;;;;5095837;28;19935;-70
2023/11/14 11:06:39;;;;;;;;;;;19.60;56.00;;;;;;5077528;28;19926;-69
2023/11/14 11:09:05;;;;;;;;;;;19.60;54.80;;;;;;5095570;28;19912;-70
2023/11/14 11:11:38;;;;;;;;;;;19.70;54.90;;;;;;5076283;28;19996;-69
2023/11/14 11:14:06;;;;;;;;;;;19.70;54.80;;;;;;5094470;28;19912;-69
2023/11/14 11:16:51;;;;;;;;;;;19.60;55.00;;;;;;5095681;28;19924;-69
2023/11/14 11:19:36;;;;;;;;;;;19.60;55.00;;;;;;5094192;28;19916;-70
2023/11/14 11:22:21;;;;;;;;;;;19.50;55.80;;;;;;5076646;28;20259;-70
2023/11/14 11:28:28;;;;;;;;;;;19.60;56.30;;;;;;5095266;28;19927;-70
2023/11/14 11:33:54;;;;;;;;;;;19.60;56.90;;;;;;5094292;28;19919;-69
2023/11/14 11:36:34;;;;;;;;;;;19.50;57.10;;;;;;5077094;28;19919;-70
2023/11/14 11:39:03;;;;;;;;;;;19.50;57.10;;;;;;5095053;28;19912;-69
2023/11/14 11:41:32;;;;;;;;;;;19.40;57.70;;;;;;5094685;28;19973;-68
2023/11/14 11:44:17;;;;;;;;;;;19.30;58.10;;;;;;5093965;28;19939;-70
2023/11/14 11:49:28;;;;;;;;;;;19.10;58.70;;;;;;5093721;28;19923;-69
2023/11/14 11:52:13;;;;;;;;;;;19.10;58.60;;;;;;5094422;28;19920;-70
2023/11/14 11:54:39;;;;;;;;;;;19.10;58.70;;;;;;5093721;28;19920;-69
2023/11/14 11:57:06;;;;;;;;;;;19.10;59.20;;;;;;5093733;28;20379;-69
2023/11/14 11:59:53;;;;;;;;;;;19.00;58.50;;;;;;5094583;28;19923;-70
2023/11/14 12:05:06;;;;;;;;;;;18.90;58.70;;;;;;5094772;28;19923;-68
2023/11/14 12:07:32;;;;;;;;;;;18.80;59.00;;;;;;5093360;28;19966;-69
2023/11/14 12:09:59;;;;;;;;;;;18.80;59.10;;;;;;5093529;28;20444;-69
2023/11/14 12:12:29;;;;;;;;;;;18.80;59.40;;;;;;5094170;28;20272;-69
2023/11/14 12:14:55;;;;;;;;;;;18.80;59.60;;;;;;5093236;28;19957;-68
2023/11/14 12:17:22;;;;;;;;;;;18.80;59.80;;;;;;5076501;28;19982;-69
2023/11/14 12:19:47;;;;;;;;;;;18.80;59.60;;;;;;5094374;28;19920;-70
2023/11/14 12:22:13;;;;;;;;;;;18.80;59.40;;;;;;5091597;28;20391;-69
2023/11/14 12:24:40;;;;;;;;;;;18.70;59.40;;;;;;5094079;28;19934;-68
2023/11/14 12:27:06;;;;;;;;;;;18.70;59.70;;;;;;5076076;28;19927;-69
2023/11/14 12:29:32;;;;;;;;;;;18.70;60.00;;;;;;5075756;28;20414;-69
2023/11/14 12:31:58;;;;;;;;;;;18.70;60.40;;;;;;5093800;28;20006;-69
2023/11/14 12:34:24;;;;;;;;;;;18.70;60.50;;;;;;5092717;28;19912;-70
2023/11/14 12:36:50;;;;;;;;;;;18.70;60.30;;;;;;5092857;28;19977;-69
2023/11/14 12:39:19;;;;;;;;;;;18.60;60.20;;;;;;5092828;28;19912;-70
2023/11/14 12:42:06;;;;;;;;;;;18.60;60.10;;;;;;5093524;28;20373;-69
2023/11/14 12:44:33;;;;;;;;;;;18.50;60.50;;;;;;5093837;28;19912;-69
2023/11/14 12:46:58;;;;;;;;;;;18.50;60.50;;;;;;5092648;28;20331;-69
2023/11/14 12:49:27;;;;;;;;;;;18.50;60.50;;;;;;5092528;28;19912;-70
2023/11/14 12:51:57;;;;;;;;;;;18.50;60.50;;;;;;5091769;28;19920;-69
2023/11/14 12:54:38;;;;;;;;;;;18.50;60.70;;;;;;5110681;27;19919;-67
2023/11/14 12:57:05;;;;;;;;;;;18.50;60.90;;;;;;5110558;28;20429;-67
2023/11/14 12:59:31;;;;;;;;;;;18.40;60.50;;;;;;5110805;28;19958;-68
2023/11/14 13:01:57;;;;;;;;;;;18.50;61.10;;;;;;5077987;28;19957;-68
2023/11/14 13:04:23;;;;;;;;;;;18.50;60.90;;;;;;5069021;28;19960;-68
2023/11/14 13:09:35;;;;;;;;;;;18.50;61.10;;;;;;5069938;28;19932;-68
2023/11/14 13:12:01;;;;;;;;;;;18.50;61.20;;;;;;5069373;28;19995;-68
2023/11/14 13:14:26;;;;;;;;;;;18.50;61.00;;;;;;5068409;28;20015;-68
2023/11/14 13:16:52;;;;;;;;;;;18.40;61.00;;;;;;5068424;28;19921;-68
2023/11/14 13:19:18;;;;;;;;;;;18.40;61.20;;;;;;5070287;28;19920;-68
2023/11/14 13:21:44;;;;;;;;;;;18.50;61.10;;;;;;5068563;28;19921;-69
2023/11/14 13:24:10;;;;;;;;;;;18.40;61.30;;;;;;5068120;28;20387;-68
2023/11/14 13:26:36;;;;;;;;;;;18.40;61.90;;;;;;5068873;28;19921;-69
2023/11/14 13:29:02;;;;;;;;;;;18.30;61.50;;;;;;5070035;28;19928;-69
2023/11/14 13:31:28;;;;;;;;;;;18.20;62.20;;;;;;5067422;28;20412;-68
2023/11/14 13:33:53;;;;;;;;;;;18.10;62.60;;;;;;5068243;28;20031;-68
2023/11/14 13:36:21;;;;;;;;;;;18.20;63.70;;;;;;5069196;28;19960;-68
2023/11/14 13:38:47;;;;;;;;;;;18.10;63.10;;;;;;5069725;28;19925;-68
2023/11/14 13:41:13;;;;;;;;;;;18.10;63.10;;;;;;5068727;28;19927;-68
2023/11/14 13:43:39;;;;;;;;;;;18.00;63.20;;;;;;5069202;28;19966;-68
2023/11/14 13:46:08;;;;;;;;;;;18.00;63.50;;;;;;5069232;28;20311;-68
2023/11/14 13:48:36;;;;;;;;;;;17.90;63.20;;;;;;5068250;28;19992;-67
2023/11/14 13:51:02;;;;;;;;;;;18.00;63.40;;;;;;5068451;28;19963;-68
2023/11/14 13:53:28;;;;;;;;;;;17.90;64.20;;;;;;5080208;28;19950;-69
2023/11/14 13:55:55;;;;;;;;;;;17.90;64.10;;;;;;5069812;28;20003;-69
2023/11/14 14:01:09;;;;;;;;;;;18.00;64.00;;;;;;5082311;28;20002;-69
2023/11/14 14:03:37;;;;;;;;;;;18.00;64.20;;;;;;5091265;28;19924;-67
2023/11/14 14:06:07;;;;;;;;;;;17.90;64.10;;;;;;5077581;28;19923;-68
2023/11/14 14:08:34;;;;;;;;;;;17.80;63.50;;;;;;5096012;28;19973;-68
2023/11/14 14:11:01;;;;;;;;;;;17.80;63.60;;;;;;5095143;28;20354;-69
2023/11/14 14:13:27;;;;;;;;;;;17.80;63.20;;;;;;5095794;28;19960;-68
2023/11/14 14:15:53;;;;;;;;;;;17.80;63.10;;;;;;5077674;28;19916;-68
2023/11/14 14:18:20;;;;;;;;;;;17.80;62.70;;;;;;5095678;28;19940;-68
2023/11/14 14:20:50;;;;;;;;;;;17.80;63.20;;;;;;5054412;28;19920;-68
2023/11/14 14:23:16;;;;;;;;;;;17.80;62.70;;;;;;5057418;28;20304;-68
2023/11/14 14:25:43;;;;;;;;;;;17.80;63.30;;;;;;5074065;28;19928;-69
2023/11/14 14:28:09;;;;;;;;;;;17.70;63.10;;;;;;5075305;28;19924;-68
2023/11/14 14:30:35;;;;;;;;;;;17.80;63.20;;;;;;5088974;28;20019;-68
2023/11/14 14:33:03;;;;;;;;;;;17.80;63.20;;;;;;5090764;28;19974;-68
2023/11/14 14:35:29;;;;;;;;;;;17.80;62.50;;;;;;5074792;28;20019;-68
2023/11/14 14:37:55;;;;;;;;;;;17.80;62.90;;;;;;5075173;28;19931;-67
2023/11/14 14:40:21;;;;;;;;;;;17.80;62.60;;;;;;5074204;28;20364;-69
2023/11/14 14:42:47;;;;;;;;;;;17.80;62.60;;;;;;5090290;28;19929;-69
2023/11/14 14:45:14;;;;;;;;;;;17.70;62.80;;;;;;5090324;28;20266;-68
2023/11/14 14:47:40;;;;;;;;;;;17.70;62.90;;;;;;5073271;28;19947;-69